createdAt,value
2023-04-25T00:00:11.449Z,14.67
2023-04-25T00:03:02.862Z,14.60
2023-04-25T00:05:31.714Z,14.46
2023-04-25T00:08:00.172Z,14.31
2023-04-25T00:10:28.433Z,14.20
2023-04-25T00:12:56.710Z,14.06
2023-04-25T00:15:25.606Z,14.01
2023-04-25T00:17:54.158Z,13.99
2023-04-25T00:20:23.175Z,13.89
2023-04-25T00:22:53.914Z,13.79
2023-04-25T00:25:22.082Z,13.62
2023-04-25T00:27:50.477Z,13.54
2023-04-25T00:30:18.637Z,13.56
2023-04-25T00:32:47.177Z,13.56
2023-04-25T00:35:15.811Z,13.51
2023-04-25T00:37:43.983Z,13.49
2023-04-25T00:40:12.560Z,13.51
2023-04-25T00:42:42.659Z,13.61
2023-04-25T00:45:15.376Z,13.71
2023-04-25T00:47:44.409Z,13.75
2023-04-25T00:50:13.640Z,13.72
2023-04-25T00:52:44.267Z,13.72
2023-04-25T00:55:13.775Z,13.67
2023-04-25T00:57:42.672Z,13.70
2023-04-25T01:00:15.261Z,13.74
2023-04-25T01:02:43.998Z,13.81
2023-04-25T01:05:13.327Z,13.86
2023-04-25T01:07:42.014Z,13.85
2023-04-25T01:10:11.009Z,13.69
2023-04-25T01:12:39.284Z,13.56
2023-04-25T01:15:08.158Z,13.56
2023-04-25T01:17:36.940Z,13.60
2023-04-25T01:20:06.144Z,13.50
2023-04-25T01:22:34.733Z,13.37
2023-04-25T01:25:03.848Z,13.24
2023-04-25T01:27:33.033Z,12.99
2023-04-25T01:30:06.777Z,12.93
2023-04-25T01:32:39.739Z,12.91
2023-04-25T01:35:13.009Z,12.96
2023-04-25T01:37:42.922Z,13.05
2023-04-25T01:40:13.970Z,13.17
2023-04-25T01:42:43.357Z,13.33
2023-04-25T01:45:13.048Z,13.48
2023-04-25T01:47:42.727Z,13.62
2023-04-25T01:50:12.601Z,13.76
2023-04-25T01:52:41.135Z,13.85
2023-04-25T01:55:10.327Z,13.93
2023-04-25T01:57:41.522Z,13.94
2023-04-25T02:00:11.034Z,13.92
2023-04-25T02:02:42.303Z,13.93
2023-04-25T02:05:23.036Z,13.98
2023-04-25T02:07:51.213Z,14.06
2023-04-25T02:10:19.499Z,14.01
2023-04-25T02:13:08.030Z,13.85
2023-04-25T02:15:59.747Z,13.85
2023-04-25T02:18:28.051Z,13.96
2023-04-25T02:20:56.618Z,14.01
2023-04-25T02:23:24.755Z,14.03
2023-04-25T02:25:53.583Z,14.08
2023-04-25T02:28:21.956Z,14.10
2023-04-25T02:30:49.973Z,14.10
2023-04-25T02:33:18.304Z,14.09
2023-04-25T02:35:46.545Z,14.09
2023-04-25T02:38:14.977Z,14.14
2023-04-25T02:40:43.239Z,14.22
2023-04-25T02:43:11.568Z,14.24
2023-04-25T02:45:39.874Z,14.15
2023-04-25T02:48:08.287Z,14.10
2023-04-25T02:50:36.441Z,14.10
2023-04-25T02:53:04.685Z,14.06
2023-04-25T02:55:38.311Z,14.05
2023-04-25T02:58:06.904Z,14.01
2023-04-25T03:00:41.735Z,13.97
2023-04-25T03:03:10.289Z,14.00
2023-04-25T03:05:38.731Z,14.06
2023-04-25T03:08:07.165Z,14.09
2023-04-25T03:10:35.852Z,14.09
2023-04-25T03:13:06.631Z,14.08
2023-04-25T03:15:37.212Z,14.03
2023-04-25T03:18:05.642Z,13.94
2023-04-25T03:20:33.782Z,13.82
2023-04-25T03:23:02.031Z,13.74
2023-04-25T03:25:31.012Z,13.83
2023-04-25T03:27:59.201Z,13.86
2023-04-25T03:30:27.902Z,13.78
2023-04-25T03:32:56.540Z,13.63
2023-04-25T03:35:25.929Z,13.54
2023-04-25T03:37:54.771Z,13.52
2023-04-25T03:40:29.182Z,13.44
2023-04-25T03:43:36.268Z,13.40
2023-04-25T03:46:07.029Z,13.45
2023-04-25T03:48:35.394Z,13.68
2023-04-25T03:51:03.860Z,13.93
2023-04-25T03:53:32.540Z,14.05
2023-04-25T03:56:23.740Z,14.03
2023-04-25T03:58:58.069Z,13.99
2023-04-25T04:01:27.376Z,13.89
2023-04-25T04:03:56.442Z,13.93
2023-04-25T04:06:26.791Z,13.99
2023-04-25T04:09:02.723Z,14.03
2023-04-25T04:11:33.584Z,14.01
2023-04-25T04:14:01.767Z,13.97
2023-04-25T04:16:31.451Z,14.04
2023-04-25T04:19:00.882Z,14.17
2023-04-25T04:21:29.453Z,14.16
2023-04-25T04:23:58.896Z,14.18
2023-04-25T04:26:27.950Z,14.32
2023-04-25T04:29:08.150Z,14.42
2023-04-25T04:31:56.784Z,14.57
2023-04-25T04:34:26.988Z,14.66
2023-04-25T04:36:56.170Z,14.55
2023-04-25T04:39:24.434Z,14.63
2023-04-25T04:42:10.242Z,14.64
2023-04-25T04:44:56.131Z,14.71
2023-04-25T04:47:44.179Z,14.61
2023-04-25T04:50:33.807Z,14.65
2023-04-25T04:53:24.479Z,14.79
2023-04-25T04:56:26.460Z,14.81
2023-04-25T04:58:54.682Z,14.94
2023-04-25T05:01:31.777Z,15.24
2023-04-25T05:04:22.911Z,15.30
2023-04-25T05:07:14.287Z,15.14
2023-04-25T05:10:03.146Z,15.34
2023-04-25T05:12:49.858Z,15.55
2023-04-25T05:15:36.730Z,15.65
2023-04-25T05:18:23.933Z,15.80
2023-04-25T05:21:07.110Z,15.78
2023-04-25T05:23:55.147Z,15.90
2023-04-25T05:26:42.189Z,16.11
2023-04-25T05:29:36.457Z,16.21
2023-04-25T05:32:23.614Z,16.22
2023-04-25T05:34:52.854Z,16.18
2023-04-25T05:37:27.795Z,16.08
2023-04-25T05:40:08.060Z,16.06
2023-04-25T05:42:54.758Z,16.02
2023-04-25T05:45:29.178Z,15.97
2023-04-25T05:48:06.298Z,16.01
2023-04-25T05:50:46.012Z,16.01
2023-04-25T05:53:43.344Z,15.96
2023-04-25T05:56:11.942Z,15.97
2023-04-25T05:58:40.319Z,15.95
2023-04-25T06:01:10.135Z,15.80
2023-04-25T06:03:39.689Z,15.74
2023-04-25T06:06:08.388Z,15.81
2023-04-25T06:08:36.560Z,15.96
2023-04-25T06:11:05.898Z,16.04
2023-04-25T06:13:34.247Z,16.08
2023-04-25T06:16:02.876Z,16.10
2023-04-25T06:18:31.441Z,16.16
2023-04-25T06:20:59.833Z,15.93
2023-04-25T06:23:29.117Z,15.34
2023-04-25T06:26:08.375Z,15.15
2023-04-25T06:28:38.350Z,15.11
2023-04-25T06:31:06.882Z,15.13
2023-04-25T06:33:35.202Z,15.09
2023-04-25T06:36:04.522Z,15.08
2023-04-25T06:38:33.312Z,15.00
2023-04-25T06:41:01.469Z,15.11
2023-04-25T06:43:34.386Z,15.40
2023-04-25T06:46:05.171Z,15.69
2023-04-25T06:48:34.913Z,15.86
2023-04-25T06:51:03.453Z,16.00
2023-04-25T06:53:31.794Z,16.12
2023-04-25T06:56:02.365Z,16.21
2023-04-25T06:58:45.371Z,16.41
2023-04-25T07:01:18.444Z,16.57
2023-04-25T07:03:46.776Z,16.63
2023-04-25T07:06:18.546Z,16.74
2023-04-25T07:08:46.961Z,16.85
2023-04-25T07:11:15.510Z,16.93
2023-04-25T07:13:45.778Z,17.14
2023-04-25T07:16:13.984Z,17.42
2023-04-25T07:18:42.690Z,17.67
2023-04-25T07:21:11.260Z,17.95
2023-04-25T07:23:41.924Z,18.09
2023-04-25T07:26:13.772Z,17.88
2023-04-25T07:28:53.410Z,17.76
2023-04-25T07:31:23.060Z,17.60
2023-04-25T07:33:51.312Z,17.59
2023-04-25T07:36:19.384Z,17.61
2023-04-25T07:38:47.669Z,17.30
2023-04-25T07:41:15.677Z,17.07
2023-04-25T07:43:44.400Z,16.73
2023-04-25T07:46:12.562Z,16.56
2023-04-25T07:48:40.739Z,16.60
2023-04-25T07:51:08.995Z,16.72
2023-04-25T07:53:38.768Z,16.83
2023-04-25T07:56:10.374Z,16.89
2023-04-25T07:58:40.299Z,16.89
2023-04-25T08:01:10.522Z,16.90
2023-04-25T08:03:39.079Z,16.98
2023-04-25T08:06:11.404Z,17.14
2023-04-25T08:08:50.006Z,17.34
2023-04-25T08:11:20.106Z,17.54
2023-04-25T08:13:48.376Z,17.66
2023-04-25T08:16:20.083Z,17.81
2023-04-25T08:18:48.426Z,18.03
2023-04-25T08:21:16.465Z,18.05
2023-04-25T08:23:45.991Z,18.21
2023-04-25T08:26:21.439Z,18.43
2023-04-25T08:28:49.679Z,18.58
2023-04-25T08:31:18.847Z,18.64
2023-04-25T08:34:01.706Z,18.76
2023-04-25T08:36:40.565Z,18.83
2023-04-25T08:39:38.387Z,18.91
2023-04-25T08:42:25.748Z,18.82
2023-04-25T08:44:56.061Z,18.66
2023-04-25T08:47:29.630Z,18.68
2023-04-25T08:50:00.918Z,18.89
2023-04-25T08:52:33.743Z,19.10
2023-04-25T08:55:03.818Z,19.24
2023-04-25T08:57:32.829Z,19.29
2023-04-25T09:00:02.191Z,19.42
2023-04-25T09:02:31.380Z,19.78
2023-04-25T09:05:00.422Z,20.26
2023-04-25T09:07:29.682Z,20.72
2023-04-25T09:09:57.730Z,20.88
2023-04-25T09:12:28.517Z,20.90
2023-04-25T09:15:09.603Z,20.45
2023-04-25T09:17:57.683Z,20.70
2023-04-25T09:20:27.735Z,21.06
2023-04-25T09:23:06.480Z,21.27
2023-04-25T09:25:44.076Z,21.28
2023-04-25T09:28:12.109Z,21.19
2023-04-25T09:30:40.758Z,21.18
2023-04-25T09:33:20.144Z,21.23
2023-04-25T09:35:56.312Z,21.33
2023-04-25T09:38:53.905Z,21.75
2023-04-25T09:41:39.771Z,22.19
2023-04-25T09:44:08.115Z,22.41
2023-04-25T09:46:39.444Z,22.58
2023-04-25T09:49:11.124Z,22.63
2023-04-25T09:51:58.162Z,22.89
2023-04-25T09:54:35.536Z,23.15
2023-04-25T09:57:18.687Z,23.02
2023-04-25T09:59:55.095Z,22.79
2023-04-25T10:02:26.436Z,22.65
2023-04-25T10:04:57.729Z,22.44
2023-04-25T10:07:32.118Z,21.80
2023-04-25T10:10:04.670Z,21.31
2023-04-25T10:12:35.029Z,20.77
2023-04-25T10:15:05.726Z,20.48
2023-04-25T10:17:35.326Z,20.25
2023-04-25T10:20:08.772Z,20.12
2023-04-25T10:22:48.554Z,19.85
2023-04-25T10:25:19.940Z,19.37
2023-04-25T10:27:48.061Z,19.11
2023-04-25T10:30:17.037Z,19.15
2023-04-25T10:32:46.948Z,19.41
2023-04-25T10:35:20.667Z,19.45
2023-04-25T10:38:00.932Z,19.03
2023-04-25T10:40:29.244Z,18.39
2023-04-25T10:43:32.508Z,18.22
2023-04-25T10:46:01.891Z,17.99
2023-04-25T10:48:31.545Z,18.09
2023-04-25T10:51:16.523Z,18.08
2023-04-25T10:54:08.287Z,18.21
2023-04-25T10:56:45.186Z,18.08
2023-04-25T10:59:15.788Z,18.02
2023-04-25T11:01:55.811Z,18.03
2023-04-25T11:04:29.728Z,18.24
2023-04-25T11:07:09.190Z,18.46
2023-04-25T11:09:41.195Z,18.57
2023-04-25T11:12:12.770Z,18.53
2023-04-25T11:17:14.393Z,19.25
2023-04-25T11:19:42.964Z,19.38
2023-04-25T11:22:11.752Z,19.60
2023-04-25T11:24:40.372Z,19.77
2023-04-25T11:27:09.532Z,19.94
2023-04-25T11:29:37.605Z,20.16
2023-04-25T11:32:06.334Z,20.06
2023-04-25T11:34:35.072Z,19.67
2023-04-25T11:37:04.119Z,18.99
2023-04-25T11:39:32.130Z,18.49
2023-04-25T11:42:01.865Z,17.99
2023-04-25T11:44:31.360Z,17.70
2023-04-25T11:46:59.548Z,17.36
2023-04-25T11:49:32.514Z,17.22
2023-04-25T11:52:01.101Z,17.17
2023-04-25T11:54:29.262Z,17.00
2023-04-25T11:56:57.797Z,16.82
2023-04-25T11:59:27.525Z,16.79
2023-04-25T12:01:56.034Z,16.75
2023-04-25T12:04:25.827Z,16.68
2023-04-25T12:06:56.436Z,16.63
2023-04-25T12:09:34.963Z,16.54
2023-04-25T12:12:04.215Z,16.55
2023-04-25T12:14:34.549Z,16.56
2023-04-25T12:17:06.315Z,16.71
2023-04-25T12:19:36.806Z,16.83
2023-04-25T12:22:21.271Z,17.15
2023-04-25T12:24:49.328Z,17.49
2023-04-25T12:27:20.237Z,17.88
2023-04-25T12:29:57.353Z,18.29
2023-04-25T12:32:26.226Z,18.67
2023-04-25T12:34:54.478Z,19.08
2023-04-25T12:37:22.680Z,19.42
2023-04-25T12:39:51.677Z,19.57
2023-04-25T12:42:19.955Z,19.91
2023-04-25T12:44:48.008Z,20.12
2023-04-25T12:47:16.431Z,20.22
2023-04-25T12:49:44.400Z,20.17
2023-04-25T12:52:12.573Z,20.42
2023-04-25T12:54:40.758Z,20.87
2023-04-25T12:57:08.996Z,21.11
2023-04-25T12:59:36.986Z,21.08
2023-04-25T13:02:05.843Z,21.30
2023-04-25T13:04:34.582Z,21.45
2023-04-25T13:07:02.905Z,21.34
2023-04-25T13:09:31.194Z,21.26
2023-04-25T13:12:00.006Z,21.04
2023-04-25T13:14:28.022Z,21.05
2023-04-25T13:16:56.751Z,20.95
2023-04-25T13:19:25.018Z,20.95
2023-04-25T13:21:53.045Z,20.68
2023-04-25T13:24:21.153Z,20.57
2023-04-25T13:26:49.165Z,20.64
2023-04-25T13:29:17.386Z,20.60
2023-04-25T13:31:45.518Z,20.47
2023-04-25T13:34:13.775Z,20.38
2023-04-25T13:36:41.996Z,20.39
2023-04-25T13:39:10.183Z,20.28
2023-04-25T13:41:38.597Z,19.96
2023-04-25T13:44:06.633Z,19.33
2023-04-25T13:46:46.478Z,18.81
2023-04-25T13:49:15.855Z,18.32
2023-04-25T13:51:44.157Z,17.91
2023-04-25T13:54:12.714Z,17.64
2023-04-25T13:56:43.450Z,17.47
2023-04-25T13:59:12.483Z,17.25
2023-04-25T14:01:40.707Z,17.08
2023-04-25T14:04:09.652Z,16.84
2023-04-25T14:06:38.008Z,16.62
2023-04-25T14:09:07.823Z,16.32
2023-04-25T14:11:36.367Z,16.03
2023-04-25T14:14:04.612Z,15.85
2023-04-25T14:16:33.292Z,15.75
2023-04-25T14:19:02.151Z,15.56
2023-04-25T14:21:33.590Z,15.53
2023-04-25T14:24:02.201Z,15.54
2023-04-25T14:26:30.265Z,15.53
2023-04-25T14:28:58.293Z,15.32
2023-04-25T14:31:26.441Z,15.26
2023-04-25T14:33:56.979Z,15.18
2023-04-25T14:36:27.768Z,15.12
2023-04-25T14:38:56.266Z,15.19
2023-04-25T14:41:26.049Z,15.14
2023-04-25T14:43:54.522Z,15.21
2023-04-25T14:46:24.497Z,15.26
2023-04-25T14:48:53.197Z,15.26
2023-04-25T14:51:21.826Z,15.28
2023-04-25T14:53:50.117Z,15.28
2023-04-25T14:56:18.686Z,15.37
2023-04-25T14:58:47.286Z,15.42
2023-04-25T15:01:15.538Z,15.49
2023-04-25T15:03:44.384Z,15.57
2023-04-25T15:06:12.731Z,15.66
2023-04-25T15:08:40.984Z,15.73
2023-04-25T15:11:09.208Z,15.70
2023-04-25T15:13:37.946Z,15.70
2023-04-25T15:16:07.188Z,15.75
2023-04-25T15:18:35.362Z,15.81
2023-04-25T15:21:04.409Z,15.76
2023-04-25T15:23:32.583Z,15.81
2023-04-25T15:26:00.680Z,15.85
2023-04-25T15:28:28.817Z,15.87
2023-04-25T15:30:57.102Z,15.80
2023-04-25T15:33:25.170Z,15.68
2023-04-25T15:35:53.617Z,15.55
2023-04-25T15:38:21.735Z,15.42
2023-04-25T15:40:49.801Z,15.30
2023-04-25T15:43:17.966Z,15.08
2023-04-25T15:45:46.219Z,14.98
2023-04-25T15:48:14.388Z,14.92
2023-04-25T15:50:42.692Z,14.93
2023-04-25T15:53:13.422Z,15.02
2023-04-25T15:55:41.726Z,15.16
2023-04-25T15:58:12.748Z,15.24
2023-04-25T16:00:41.834Z,15.28
2023-04-25T16:03:10.973Z,15.27
2023-04-25T16:05:39.634Z,15.31
2023-04-25T16:08:08.317Z,15.40
2023-04-25T16:10:36.901Z,15.45
2023-04-25T16:13:05.160Z,15.50
2023-04-25T16:15:35.454Z,15.50
2023-04-25T16:18:04.306Z,15.62
2023-04-25T16:20:33.002Z,15.69
2023-04-25T16:23:01.503Z,15.63
2023-04-25T16:25:29.722Z,15.51
2023-04-25T16:27:58.189Z,15.49
2023-04-25T16:30:26.423Z,15.52
2023-04-25T16:32:57.241Z,15.43
2023-04-25T16:35:25.998Z,15.38
2023-04-25T16:37:54.063Z,15.21
2023-04-25T16:40:22.290Z,15.06
2023-04-25T16:42:50.500Z,14.45
2023-04-25T16:45:20.484Z,14.13
2023-04-25T16:47:51.797Z,13.82
2023-04-25T16:50:20.763Z,13.42
2023-04-25T16:52:51.387Z,13.09
2023-04-25T16:55:19.792Z,12.84
2023-04-25T16:57:48.032Z,12.74
2023-04-25T17:00:16.913Z,12.74
2023-04-25T17:02:45.230Z,12.64
2023-04-25T17:05:13.649Z,12.60
2023-04-25T17:07:41.746Z,12.50
2023-04-25T17:10:10.923Z,12.46
2023-04-25T17:12:38.990Z,12.48
2023-04-25T17:15:07.870Z,12.40
2023-04-25T17:17:35.938Z,12.34
2023-04-25T17:20:06.867Z,12.29
2023-04-25T17:22:36.348Z,12.20
2023-04-25T17:25:05.423Z,12.12
2023-04-25T17:27:34.440Z,12.02
2023-04-25T17:30:04.148Z,11.93
2023-04-25T17:32:32.252Z,11.87
2023-04-25T17:35:00.469Z,11.76
2023-04-25T17:37:28.847Z,11.72
2023-04-25T17:39:57.980Z,11.73
2023-04-25T17:42:26.343Z,11.77
2023-04-25T17:44:55.749Z,11.86
2023-04-25T17:47:25.069Z,12.03
2023-04-25T17:49:53.339Z,12.15
2023-04-25T17:52:22.094Z,12.19
2023-04-25T17:54:50.223Z,12.33
2023-04-25T17:57:22.825Z,12.42
2023-04-25T17:59:51.514Z,12.41
2023-04-25T18:02:20.045Z,12.46
2023-04-25T18:04:51.633Z,12.35
2023-04-25T18:07:19.934Z,12.31
2023-04-25T18:09:47.928Z,12.26
2023-04-25T18:12:16.882Z,12.26
2023-04-25T18:14:45.981Z,12.25
2023-04-25T18:17:15.043Z,12.21
2023-04-25T18:19:43.142Z,12.05
2023-04-25T18:22:12.968Z,12.07
2023-04-25T18:24:44.828Z,11.98
2023-04-25T18:27:12.907Z,11.80
2023-04-25T18:29:43.221Z,11.82
2023-04-25T18:32:11.525Z,11.81
2023-04-25T18:34:43.858Z,11.81
2023-04-25T18:37:14.376Z,11.66
2023-04-25T18:39:42.922Z,11.62
2023-04-25T18:42:12.361Z,11.59
2023-04-25T18:44:40.968Z,11.64
2023-04-25T18:47:19.096Z,11.63
2023-04-25T18:49:48.032Z,11.56
2023-04-25T18:52:16.611Z,11.44
2023-04-25T18:54:45.868Z,11.37
2023-04-25T18:57:18.017Z,11.38
2023-04-25T18:59:46.444Z,11.36
2023-04-25T19:02:16.259Z,11.34
2023-04-25T19:04:44.660Z,11.36
2023-04-25T19:07:12.982Z,11.37
2023-04-25T19:09:41.195Z,11.40
2023-04-25T19:12:10.115Z,11.40
2023-04-25T19:14:38.406Z,11.44
2023-04-25T19:17:06.761Z,11.45
2023-04-25T19:19:35.031Z,11.44
2023-04-25T19:22:03.281Z,11.41
2023-04-25T19:24:33.336Z,11.32
2023-04-25T19:27:03.126Z,11.24
2023-04-25T19:29:32.840Z,11.15
2023-04-25T19:32:03.407Z,11.10
2023-04-25T19:34:31.976Z,11.06
2023-04-25T19:37:00.841Z,11.07
2023-04-25T19:39:29.355Z,11.01
2023-04-25T19:41:57.800Z,10.96
2023-04-25T19:44:26.919Z,10.89
2023-04-25T19:46:55.088Z,10.87
2023-04-25T19:49:23.161Z,10.87
2023-04-25T19:51:51.825Z,10.83
2023-04-25T19:54:21.589Z,10.75
2023-04-25T19:56:51.031Z,10.73
2023-04-25T19:59:19.008Z,10.69
2023-04-25T20:01:47.388Z,10.67
2023-04-25T20:04:15.689Z,10.64
2023-04-25T20:06:44.308Z,10.58
2023-04-25T20:09:12.417Z,10.54
2023-04-25T20:11:40.464Z,10.48
2023-04-25T20:14:08.559Z,10.46
2023-04-25T20:16:37.694Z,10.48
2023-04-25T20:19:05.819Z,10.50
2023-04-25T20:21:34.616Z,10.47
2023-04-25T20:24:02.786Z,10.38
2023-04-25T20:26:34.172Z,10.30
2023-04-25T20:29:02.456Z,10.22
2023-04-25T20:31:31.879Z,10.06
2023-04-25T20:34:01.092Z,10.04
2023-04-25T20:36:29.893Z,10.00
2023-04-25T20:38:58.273Z,9.87
2023-04-25T20:41:26.826Z,9.82
2023-04-25T20:43:54.909Z,9.80
2023-04-25T20:46:23.218Z,9.76
2023-04-25T20:48:53.024Z,9.68
2023-04-25T20:51:21.694Z,9.55
2023-04-25T20:53:49.765Z,9.37
2023-04-25T20:56:19.278Z,9.25
2023-04-25T20:58:47.545Z,9.14
2023-04-25T21:01:15.556Z,9.09
2023-04-25T21:03:43.743Z,9.04
2023-04-25T21:06:14.045Z,9.02
2023-04-25T21:08:42.622Z,8.99
2023-04-25T21:11:11.947Z,8.92
2023-04-25T21:13:40.047Z,8.84
2023-04-25T21:16:08.208Z,8.76
2023-04-25T21:18:36.411Z,8.69
2023-04-25T21:21:05.417Z,8.62
2023-04-25T21:23:33.790Z,8.57
2023-04-25T21:26:02.056Z,8.55
2023-04-25T21:28:30.112Z,8.54
2023-04-25T21:30:58.344Z,8.55
2023-04-25T21:33:26.525Z,8.53
2023-04-25T21:35:54.850Z,8.50
2023-04-25T21:38:22.924Z,8.50
2023-04-25T21:40:51.109Z,8.48
2023-04-25T21:43:19.473Z,8.48
2023-04-25T21:46:14.634Z,8.50
2023-04-25T21:48:35.811Z,8.58
2023-04-25T21:51:04.613Z,8.70
2023-04-25T21:53:32.596Z,8.80
2023-04-25T21:56:01.086Z,8.80
2023-04-25T21:58:29.106Z,8.82
2023-04-25T22:00:57.177Z,8.85
2023-04-25T22:03:25.669Z,8.87
2023-04-25T22:05:53.895Z,8.88
2023-04-25T22:08:22.294Z,8.86
2023-04-25T22:10:50.490Z,8.86
2023-04-25T22:13:18.638Z,8.83
2023-04-25T22:15:47.783Z,8.81
2023-04-25T22:18:16.493Z,8.76
2023-04-25T22:20:45.023Z,8.74
2023-04-25T22:23:13.923Z,8.71
2023-04-25T22:25:42.546Z,8.69
2023-04-25T22:28:12.721Z,8.70
2023-04-25T22:30:40.895Z,8.71
2023-04-25T22:33:09.076Z,8.67
2023-04-25T22:35:37.299Z,8.66
2023-04-25T22:38:05.333Z,8.63
2023-04-25T22:40:33.652Z,8.59
2023-04-25T22:43:02.240Z,8.56
2023-04-25T22:45:30.334Z,8.51
2023-04-25T22:47:58.775Z,8.44
2023-04-25T22:50:27.161Z,8.41
2023-04-25T22:52:55.335Z,8.40
2023-04-25T22:55:23.854Z,8.40
2023-04-25T22:57:52.918Z,8.38
2023-04-25T23:00:22.063Z,8.38
2023-04-25T23:02:51.117Z,8.37
2023-04-25T23:05:19.261Z,8.39
2023-04-25T23:07:47.273Z,8.42
2023-04-25T23:10:15.435Z,8.55
2023-04-25T23:12:44.080Z,8.63
2023-04-25T23:15:13.740Z,8.77
2023-04-25T23:17:42.427Z,8.92
2023-04-25T23:20:12.177Z,9.00
2023-04-25T23:22:40.580Z,9.02
2023-04-25T23:25:09.696Z,8.90
2023-04-25T23:27:38.200Z,8.71
2023-04-25T23:30:07.155Z,8.55
2023-04-25T23:32:35.896Z,8.47
2023-04-25T23:35:05.353Z,8.42
2023-04-25T23:37:34.652Z,8.35
2023-04-25T23:40:10.196Z,8.31
2023-04-25T23:42:39.894Z,8.24
2023-04-25T23:45:09.535Z,8.21
2023-04-25T23:47:37.929Z,8.19
2023-04-25T23:50:08.113Z,8.15
2023-04-25T23:52:36.359Z,8.07
2023-04-25T23:55:05.780Z,8.06
2023-04-25T23:57:34.260Z,8.03
